Bridge City, Texas
Current Conditions -  °F | °C
As of 10:36 PM on Saturday 22 Nov 2014 (Local Time) from KBPT Reporting Station
Light Rain Light Rain  
Wind Chill: 66°   Ceiling: 1000
Heat Index: 66°   Visibility: 8mi
Dew Point: 64°   Wind: 13mph
Humidity: 93%   Direction: 110°ESE
Pressure: 29.78"   Gusts: NA
Location:  30.02°N, 93.84°W
Report Text: KBPT 230436Z AUTO 11011KT 8SM -RA SCT006 BKN010 OVC017 19/18 A2978 RMK AO2 RAE0358B29 P0000 T01890178
Loading
Personal Weather Stations






























Interactive Weather Map New forecast layout! Learn more

10-Day Weather Forecast

Advertisements
Track Severe Weather on mobile